Time;durP1;ratioP1;P1;durP2;ratioP2;P2;SDS_P1;SDS_P2;PMS_P1;PMS_P2;Temp;Humidity;BMP_temperature;BMP_pressure;BME280_temperature;BME280_humidity;BME280_pressure;Samples;Min_cycle;Max_cycle;Signal;HPM_P1;HPM_P2
2022/05/04 00:01:46;;;;;;;21.57;10.90;;;;;;;10.44;69.90;100091.22;1791502;79;21044;-71
2022/05/04 00:04:15;;;;;;;12.23;10.23;;;;;;;10.45;69.91;100091.48;1800220;79;21086;-74
2022/05/04 00:06:43;;;;;;;11.78;10.23;;;;;;;10.44;69.96;100089.88;1773559;79;21478;-71
2022/05/04 00:09:11;;;;;;;10.55;9.45;;;;;;;10.44;70.09;100088.55;1809797;78;21524;-71
2022/05/04 00:11:40;;;;;;;11.97;10.55;;;;;;;10.44;70.17;100087.21;1807722;78;21037;-72
2022/05/04 00:14:07;;;;;;;11.22;9.78;;;;;;;10.45;70.42;100088.01;1796256;78;21061;-71
2022/05/04 00:16:36;;;;;;;11.18;9.58;;;;;;;10.47;70.80;100087.22;1824274;77;21076;-73
2022/05/04 00:19:02;;;;;;;9.83;8.05;;;;;;;10.48;71.12;100086.94;1821001;78;21587;-70
2022/05/04 00:21:30;;;;;;;11.08;9.93;;;;;;;10.52;71.56;100087.20;1805500;78;21587;-73
2022/05/04 00:23:57;;;;;;;11.10;9.90;;;;;;;10.59;71.95;100091.73;1823215;78;21065;-71
2022/05/04 00:26:23;;;;;;;13.08;10.78;;;;;;;10.69;72.06;100088.25;1824748;78;21078;-70
2022/05/04 00:28:52;;;;;;;10.70;8.83;;;;;;;10.71;72.15;100094.94;1825833;78;21065;-72
2022/05/04 00:31:19;;;;;;;11.90;9.18;;;;;;;10.72;71.89;100099.20;1802209;78;21010;-72
2022/05/04 00:33:46;;;;;;;8.95;7.80;;;;;;;10.76;71.51;100090.14;1791591;78;21145;-72
2022/05/04 00:36:13;;;;;;;9.78;8.30;;;;;;;10.79;71.10;100093.58;1829433;77;20998;-73
2022/05/04 00:38:42;;;;;;;10.50;9.28;;;;;;;10.79;70.85;100097.59;1812028;77;21335;-73
2022/05/04 00:41:09;;;;;;;10.93;9.65;;;;;;;10.84;70.70;100102.14;1815729;78;21013;-72
2022/05/04 00:43:36;;;;;;;10.72;9.45;;;;;;;10.89;70.68;100105.61;1825740;77;21133;-73
2022/05/04 00:46:03;;;;;;;11.35;9.30;;;;;;;10.95;70.86;100108.52;1823998;78;21507;-72
2022/05/04 00:48:30;;;;;;;11.63;8.98;;;;;;;11.02;70.66;100113.07;1822372;77;21116;-73
2022/05/04 00:50:56;;;;;;;10.75;9.03;;;;;;;11.03;70.40;100107.19;1827321;77;20999;-73
2022/05/04 00:53:23;;;;;;;9.85;8.83;;;;;;;11.14;70.04;100103.41;1835329;76;20994;-72
2022/05/04 00:55:51;;;;;;;11.35;9.28;;;;;;;11.17;69.80;100106.08;1822311;78;21123;-72
2022/05/04 01:01:03;;;;;;;10.53;8.35;;;;;;;11.17;69.64;100107.41;1817568;77;20997;-70
2022/05/04 01:03:31;;;;;;;10.53;8.23;;;;;;;11.22;69.58;100114.89;1805214;78;22142;-71
2022/05/04 01:05:58;;;;;;;9.60;8.18;;;;;;;11.26;69.60;100111.14;1745199;79;21084;-72
2022/05/04 01:08:25;;;;;;;10.65;8.25;;;;;;;11.30;69.37;100108.17;1787651;79;21548;-71
2022/05/04 01:10:52;;;;;;;12.33;9.05;;;;;;;11.38;69.08;100114.28;1753079;80;21890;-71
2022/05/04 01:13:20;;;;;;;10.28;8.15;;;;;;;11.43;68.70;100110.81;1804416;78;20910;-72
2022/05/04 01:15:48;;;;;;;9.88;8.65;;;;;;;11.48;68.36;100109.44;1796748;78;21086;-72
2022/05/04 01:18:15;;;;;;;9.63;7.70;;;;;;;11.53;68.06;100115.32;1772771;79;20993;-72
2022/05/04 01:20:42;;;;;;;10.08;8.03;;;;;;;11.56;67.66;100111.55;1797348;79;21032;-72
2022/05/04 01:23:09;;;;;;;10.15;7.87;;;;;;;11.61;67.41;100113.40;1795208;78;21216;-72
2022/05/04 01:25:37;;;;;;;10.63;8.48;;;;;;;11.63;67.15;100110.72;1796706;79;20985;-73
2022/05/04 01:28:05;;;;;;;9.73;8.40;;;;;;;11.71;66.82;100124.05;1796150;79;21098;-72
2022/05/04 01:30:34;;;;;;;9.65;7.75;;;;;;;11.75;66.58;100118.44;1796532;79;21510;-73
2022/05/04 01:33:01;;;;;;;10.08;7.62;;;;;;;11.81;66.25;100110.62;1812361;78;20999;-72
2022/05/04 01:35:28;;;;;;;11.43;7.33;;;;;;;11.89;65.74;100115.98;1773201;79;21012;-72
2022/05/04 01:37:55;;;;;;;9.28;8.20;;;;;;;11.96;65.37;100113.80;1771745;80;21515;-71
2022/05/04 01:40:22;;;;;;;9.95;7.37;;;;;;;12.05;64.91;100118.03;1807428;78;21425;-71
2022/05/04 01:42:49;;;;;;;10.35;7.05;;;;;;;12.12;64.43;100118.52;1807116;78;21474;-72
2022/05/04 01:45:22;;;;;;;8.73;7.10;;;;;;;12.19;63.88;100123.02;1807335;79;21053;-72
2022/05/04 01:47:56;;;;;;;11.48;7.53;;;;;;;12.25;63.18;100123.25;1802676;78;21121;-72
2022/05/04 01:50:23;;;;;;;9.15;7.17;;;;;;;12.31;62.76;100131.52;1809043;78;21559;-72
2022/05/04 01:52:49;;;;;;;10.25;7.28;;;;;;;12.35;62.45;100127.20;1807264;79;21128;-71
2022/05/04 01:55:18;;;;;;;8.75;6.53;;;;;;;12.41;62.08;100129.30;1807720;79;20979;-72
2022/05/04 01:57:45;;;;;;;9.45;7.10;;;;;;;12.46;61.78;100129.25;1808869;78;21547;-71
2022/05/04 02:00:13;;;;;;;9.53;7.03;;;;;;;12.53;61.52;100123.57;1808021;78;21766;-71
2022/05/04 02:02:43;;;;;;;8.58;6.95;;;;;;;12.52;61.25;100128.68;1791204;79;20943;-72
2022/05/04 02:05:10;;;;;;;9.53;6.45;;;;;;;12.49;60.94;100130.03;1807643;79;21070;-72
2022/05/04 02:07:38;;;;;;;10.38;6.55;;;;;;;12.49;60.62;100135.94;1807162;78;20986;-72
2022/05/04 02:10:07;;;;;;;9.20;6.95;;;;;;;12.59;60.14;100144.69;1807361;78;20967;-72
2022/05/04 02:12:35;;;;;;;10.53;6.80;;;;;;;12.65;59.41;100148.13;1807443;78;21054;-72
2022/05/04 02:15:08;;;;;;;9.58;6.62;;;;;;;12.68;59.10;100144.34;1808090;79;21085;-71
2022/05/04 02:17:36;;;;;;;9.85;6.70;;;;;;;12.70;58.26;100142.75;1804050;78;21029;-71
2022/05/04 02:20:05;;;;;;;9.20;6.85;;;;;;;12.74;57.97;100145.66;1784137;79;21611;-72
2022/05/04 02:22:32;;;;;;;9.45;6.37;;;;;;;12.76;57.79;100142.14;1797255;79;20951;-72
2022/05/04 02:24:59;;;;;;;9.65;6.30;;;;;;;12.77;57.91;100153.94;1807703;79;21107;-71
2022/05/04 02:27:26;;;;;;;8.78;6.30;;;;;;;12.77;57.88;100155.82;1808337;79;21029;-71
2022/05/04 02:29:53;;;;;;;7.60;5.53;;;;;;;12.74;57.86;100157.17;1808347;79;21075;-72
2022/05/04 02:32:20;;;;;;;8.35;6.22;;;;;;;12.71;58.04;100163.09;1805979;79;21021;-72
2022/05/04 02:40:17;;;;;;;9.75;6.83;;;;;;;12.46;58.86;100162.73;1785813;79;20995;-73
2022/05/04 02:42:46;;;;;;;9.23;6.87;;;;;;;12.40;59.13;100175.89;1799147;79;21252;-72
2022/05/04 02:45:14;;;;;;;10.40;7.12;;;;;;;12.36;59.40;100178.88;1799396;79;21073;-73
2022/05/04 02:47:42;;;;;;;8.90;6.83;;;;;;;12.31;59.48;100189.64;1783129;79;21097;-73
2022/05/04 02:50:09;;;;;;;10.20;6.92;;;;;;;12.26;59.69;100187.77;1799296;79;21892;-73
2022/05/04 02:52:37;;;;;;;8.55;6.80;;;;;;;12.22;59.02;100192.09;1799239;79;20983;-73
2022/05/04 02:55:06;;;;;;;9.65;6.47;;;;;;;12.16;58.77;100189.97;1799513;79;20952;-72
2022/05/04 02:57:34;;;;;;;10.08;6.83;;;;;;;12.22;58.53;100197.98;1799075;79;21089;-72
2022/05/04 03:00:01;;;;;;;8.95;6.53;;;;;;;12.23;58.68;100195.56;1800106;79;20998;-72
2022/05/04 03:02:29;;;;;;;12.03;6.78;;;;;;;12.23;58.69;100198.23;1798985;79;21163;-73
2022/05/04 03:05:00;;;;;;;9.13;6.58;;;;;;;12.22;58.69;100194.77;1799098;78;21129;-72
2022/05/04 03:07:27;;;;;;;9.95;6.83;;;;;;;12.22;58.85;100197.98;1799568;79;20986;-72
2022/05/04 03:09:55;;;;;;;10.28;7.40;;;;;;;12.23;59.01;100199.58;1799528;79;21631;-72
2022/05/04 03:12:24;;;;;;;10.23;7.20;;;;;;;12.22;59.11;100201.45;1798875;79;21026;-72
2022/05/04 03:14:51;;;;;;;9.83;6.40;;;;;;;12.20;59.23;100201.72;1799640;79;21210;-72
2022/05/04 03:17:18;;;;;;;12.33;6.67;;;;;;;12.19;58.67;100200.13;1799354;79;21501;-72
2022/05/04 03:19:45;;;;;;;10.82;6.60;;;;;;;12.22;58.20;100209.49;1799292;79;20999;-73
2022/05/04 03:22:13;;;;;;;10.72;7.30;;;;;;;12.26;57.73;100212.41;1799375;79;20943;-72
2022/05/04 03:24:40;;;;;;;10.90;7.15;;;;;;;12.32;57.09;100226.04;1799266;79;21002;-73
2022/05/04 03:27:07;;;;;;;10.23;6.40;;;;;;;12.39;56.57;100232.69;1799134;79;21230;-72
2022/05/04 03:29:35;;;;;;;9.90;6.20;;;;;;;12.45;55.71;100221.41;1798704;79;21010;-72
2022/05/04 03:32:03;;;;;;;11.25;6.55;;;;;;;12.54;55.63;100222.43;1799251;79;21081;-73
2022/05/04 03:34:30;;;;;;;9.73;6.33;;;;;;;12.59;55.10;100222.38;1799425;79;20963;-72
2022/05/04 03:37:00;;;;;;;9.93;6.42;;;;;;;12.78;54.56;100225.75;1799276;79;21026;-73
2022/05/04 03:39:27;;;;;;;9.10;6.22;;;;;;;12.78;54.09;100220.39;1799017;79;21810;-73
2022/05/04 03:41:54;;;;;;;10.88;6.45;;;;;;;12.86;53.68;100229.16;1799513;79;21493;-73
2022/05/04 03:44:21;;;;;;;10.10;5.92;;;;;;;12.86;53.66;100238.54;1799394;79;21050;-72
2022/05/04 03:46:50;;;;;;;10.80;6.37;;;;;;;12.98;52.99;100239.53;1798749;79;21025;-74
2022/05/04 03:49:21;;;;;;;12.40;6.90;;;;;;;13.05;52.39;100242.69;1799492;79;20987;-72
2022/05/04 03:51:50;;;;;;;11.20;7.00;;;;;;;13.13;52.13;100246.91;1799273;79;21558;-72
2022/05/04 03:54:17;;;;;;;10.00;6.83;;;;;;;13.20;51.97;100249.27;1799259;79;21200;-72
2022/05/04 03:56:44;;;;;;;11.43;6.45;;;;;;;13.26;51.77;100259.42;1799366;79;21017;-71
2022/05/04 03:59:11;;;;;;;13.32;6.70;;;;;;;13.31;51.70;100256.70;1799257;79;21482;-72
2022/05/04 04:01:38;;;;;;;12.75;6.20;;;;;;;13.38;51.72;100260.66;1799707;79;21062;-72
2022/05/04 04:04:06;;;;;;;10.23;6.83;;;;;;;13.45;51.56;100262.20;1799035;79;22229;-72
2022/05/04 04:06:37;;;;;;;10.95;6.67;;;;;;;13.53;51.05;100264.30;1799458;79;22186;-72
2022/05/04 04:09:05;;;;;;;14.05;6.72;;;;;;;13.59;50.88;100266.64;1798955;79;21604;-74
2022/05/04 04:11:32;;;;;;;12.05;6.22;;;;;;;13.68;50.47;100258.75;1770655;79;21537;-72
2022/05/04 04:14:00;;;;;;;10.00;5.87;;;;;;;13.75;50.38;100253.84;1799639;79;21564;-72
2022/05/04 04:16:27;;;;;;;10.68;6.55;;;;;;;13.81;50.22;100256.72;1799726;79;21302;-72
2022/05/04 04:18:54;;;;;;;10.48;6.55;;;;;;;13.85;49.75;100259.64;1770055;79;21074;-72
2022/05/04 04:24:08;;;;;;;11.78;6.22;;;;;;;13.81;49.53;100262.09;1799607;79;20959;-73
2022/05/04 04:26:38;;;;;;;13.60;7.37;;;;;;;13.78;49.80;100271.27;1799032;79;21117;-72
2022/05/04 04:29:06;;;;;;;12.20;5.80;;;;;;;13.74;49.89;100271.03;1799125;79;21254;-73
2022/05/04 04:31:36;;;;;;;11.18;6.53;;;;;;;13.74;50.00;100276.41;1799337;79;20999;-70
2022/05/04 04:34:03;;;;;;;10.28;6.50;;;;;;;13.79;49.98;100277.70;1799670;79;21046;-72
2022/05/04 04:36:31;;;;;;;11.95;7.17;;;;;;;13.87;49.85;100280.84;1800159;79;21444;-72
2022/05/04 04:38:59;;;;;;;11.17;6.77;;;;;;;13.91;49.51;100275.95;1799318;79;21413;-72
2022/05/04 04:41:27;;;;;;;10.03;6.93;;;;;;;14.02;49.52;100286.05;1798899;79;21218;-72
2022/05/04 04:43:54;;;;;;;10.93;6.53;;;;;;;14.08;49.27;100286.23;1799936;79;21851;-72
2022/05/04 04:46:24;;;;;;;12.10;6.60;;;;;;;14.16;49.20;100288.30;1799205;79;21572;-73
2022/05/04 04:48:51;;;;;;;10.88;6.42;;;;;;;14.23;48.89;100284.70;1799746;79;21545;-72
2022/05/04 04:51:18;;;;;;;11.03;6.07;;;;;;;14.29;48.75;100288.94;1800084;79;21049;-73
2022/05/04 04:53:46;;;;;;;9.83;6.50;;;;;;;14.34;48.45;100305.52;1798698;79;21633;-72
2022/05/04 04:56:13;;;;;;;12.17;6.67;;;;;;;14.38;48.13;100297.16;1799345;79;21006;-72
2022/05/04 04:58:40;;;;;;;11.70;6.40;;;;;;;14.42;48.17;100301.41;1799640;79;21244;-72
2022/05/04 05:01:07;;;;;;;10.73;6.20;;;;;;;14.43;48.25;100303.80;1799186;79;21223;-72
2022/05/04 05:03:36;;;;;;;13.83;6.60;;;;;;;14.42;48.24;100302.21;1800906;79;21334;-72
2022/05/04 05:06:05;;;;;;;11.00;6.00;;;;;;;14.43;48.39;100305.14;1804958;79;21312;-72
2022/05/04 05:08:32;;;;;;;12.43;6.20;;;;;;;14.46;48.30;100296.51;1799383;79;21192;-71
2022/05/04 05:10:59;;;;;;;10.27;5.60;;;;;;;14.49;48.09;100321.46;1799242;79;21303;-73
2022/05/04 05:13:26;;;;;;;9.23;5.90;;;;;;;14.50;48.06;100308.82;1799746;78;21270;-74
2022/05/04 05:16:08;;;;;;;10.20;5.83;;;;;;;14.51;48.21;100311.27;1799731;79;21168;-73
2022/05/04 05:18:36;;;;;;;10.65;5.75;;;;;;;14.53;48.08;100304.24;1799849;79;21249;-72
2022/05/04 05:21:03;;;;;;;9.93;5.57;;;;;;;14.51;47.97;100312.61;1800187;79;21026;-72
2022/05/04 05:23:30;;;;;;;9.00;5.80;;;;;;;14.45;48.23;100307.56;1799489;79;21281;-71
2022/05/04 05:25:58;;;;;;;10.53;6.17;;;;;;;14.33;48.46;100311.20;1798825;79;21439;-71
2022/05/04 05:28:25;;;;;;;10.00;5.63;;;;;;;14.39;48.20;100312.73;1799527;79;21260;-70
2022/05/04 05:30:57;;;;;;;9.50;6.13;;;;;;;14.26;48.65;100315.03;1801560;79;21848;-72
2022/05/04 05:33:29;;;;;;;9.33;5.73;;;;;;;14.23;48.71;100316.94;1800672;79;21830;-72
2022/05/04 05:35:56;;;;;;;9.53;5.03;;;;;;;14.24;48.95;100317.19;1801535;79;21200;-71
2022/05/04 05:38:28;;;;;;;7.13;5.10;;;;;;;14.33;48.68;100315.23;1801114;78;21196;-74
2022/05/04 05:40:55;;;;;;;11.25;5.20;;;;;;;14.46;48.78;100321.24;1799896;79;24221;-72
2022/05/04 05:43:22;;;;;;;9.63;5.23;;;;;;;14.62;48.81;100332.08;1799762;78;21202;-71
2022/05/04 05:45:49;;;;;;;7.60;4.43;;;;;;;14.76;48.01;100324.89;1799563;79;21113;-72
2022/05/04 05:48:19;;;;;;;7.70;4.70;;;;;;;14.87;47.45;100329.59;1798589;79;21170;-73
2022/05/04 05:50:47;;;;;;;8.03;4.90;;;;;;;14.97;46.97;100332.13;1799956;79;21208;-71
2022/05/04 05:53:19;;;;;;;9.63;4.60;;;;;;;15.05;46.99;100330.67;1802430;79;21725;-72
2022/05/04 05:55:50;;;;;;;7.27;3.97;;;;;;;15.16;47.05;100329.95;1806696;78;21291;-71
2022/05/04 05:58:25;;;;;;;9.60;4.20;;;;;;;15.28;46.92;100332.20;1802195;78;21582;-73
2022/05/04 06:00:55;;;;;;;6.80;3.90;;;;;;;15.37;46.78;100333.14;1778736;79;21235;-74
2022/05/04 06:03:25;;;;;;;7.33;4.33;;;;;;;15.47;46.88;100330.28;1806785;78;21308;-72
2022/05/04 06:05:53;;;;;;;8.33;4.30;;;;;;;15.54;46.19;100332.59;1796804;78;21216;-73
2022/05/04 06:08:21;;;;;;;7.03;4.07;;;;;;;15.57;46.01;100346.26;1800573;78;22249;-73
2022/05/04 06:10:48;;;;;;;7.10;4.53;;;;;;;15.60;45.57;100344.32;1798901;79;21162;-73
2022/05/04 06:13:15;;;;;;;5.80;3.63;;;;;;;15.65;45.54;100336.70;1799268;79;21275;-72
2022/05/04 06:15:42;;;;;;;5.93;4.07;;;;;;;15.67;45.60;100339.93;1798993;79;21209;-72
2022/05/04 06:18:10;;;;;;;6.27;3.27;;;;;;;15.70;45.72;100345.52;1806585;79;21229;-72
2022/05/04 06:20:37;;;;;;;6.93;3.30;;;;;;;15.77;45.59;100335.71;1799342;79;21207;-73
2022/05/04 06:23:05;;;;;;;4.83;3.20;;;;;;;15.87;45.94;100344.95;1800019;78;21296;-73
2022/05/04 06:25:32;;;;;;;6.00;3.57;;;;;;;15.99;45.67;100343.66;1799859;79;21354;-73
2022/05/04 06:28:00;;;;;;;10.53;3.53;;;;;;;16.01;45.25;100349.00;1797589;79;21243;-74
2022/05/04 06:36:02;;;;;;;7.03;3.73;;;;;;;16.17;45.34;100349.52;1801214;78;21250;-74
2022/05/04 06:38:28;;;;;;;6.67;3.77;;;;;;;16.18;45.00;100351.89;1799647;78;21227;-72
2022/05/04 06:40:55;;;;;;;6.83;4.00;;;;;;;16.28;45.10;100357.63;1802705;78;21304;-73
2022/05/04 06:43:25;;;;;;;7.23;4.10;;;;;;;16.28;45.10;100357.63;1800914;78;21426;-75
2022/05/04 06:45:52;;;;;;;5.77;3.73;;;;;;;16.36;44.90;100340.78;1739609;79;21697;-73
2022/05/04 06:48:20;;;;;;;6.27;4.00;;;;;;;16.45;44.82;100347.59;1776002;79;21766;-73
2022/05/04 06:50:47;;;;;;;6.53;3.90;;;;;;;16.50;44.45;100350.75;1809462;78;21298;-73
2022/05/04 06:53:14;;;;;;;8.20;4.33;;;;;;;16.56;44.58;100348.98;1806657;79;21339;-73
2022/05/04 06:55:41;;;;;;;5.67;4.00;;;;;;;16.64;44.15;100352.86;1806529;79;21419;-72
2022/05/04 06:58:09;;;;;;;7.10;4.10;;;;;;;16.77;43.79;100353.97;1806596;78;21391;-73
2022/05/04 07:00:37;;;;;;;7.30;4.13;;;;;;;16.77;43.79;100353.97;1807595;78;21404;-73
2022/05/04 07:03:04;;;;;;;6.30;3.90;;;;;;;16.82;43.51;100353.32;1814364;78;21412;-73
2022/05/04 07:05:32;;;;;;;9.40;4.67;;;;;;;16.88;43.64;100354.02;1808021;79;21331;-72
2022/05/04 07:07:59;;;;;;;8.73;4.80;;;;;;;17.04;43.20;100359.84;1805853;78;21317;-73
2022/05/04 07:10:26;;;;;;;9.83;4.83;;;;;;;17.04;43.20;100359.84;1806624;78;21401;-73
2022/05/04 07:12:54;;;;;;;6.80;4.20;;;;;;;17.20;41.62;100357.03;1807848;78;21449;-72
2022/05/04 07:15:20;;;;;;;6.00;3.60;;;;;;;17.20;41.62;100357.03;1807655;79;22110;-73
2022/05/04 07:17:48;;;;;;;4.53;3.30;;;;;;;17.21;41.93;100365.40;1808094;79;21423;-72
2022/05/04 07:20:16;;;;;;;7.70;3.47;;;;;;;17.23;42.40;100363.73;1807918;78;21505;-72
2022/05/04 07:22:43;;;;;;;5.53;3.50;;;;;;;17.26;41.67;100369.31;1806874;79;21474;-73
2022/05/04 07:25:10;;;;;;;6.47;4.07;;;;;;;17.24;41.03;100374.23;1807439;79;21440;-71
2022/05/04 07:27:39;;;;;;;4.70;3.00;;;;;;;17.24;41.03;100374.23;1807100;78;21540;-73
2022/05/04 07:30:08;;;;;;;5.57;3.00;;;;;;;17.19;42.08;100387.84;1808007;78;21651;-72
2022/05/04 07:32:35;;;;;;;7.10;3.17;;;;;;;17.20;42.14;100389.42;1808706;78;21522;-72
2022/05/04 07:35:05;;;;;;;5.73;3.00;;;;;;;17.30;42.15;100392.44;1807733;78;21516;-73
2022/05/04 07:37:32;;;;;;;6.07;2.77;;;;;;;17.35;41.16;100386.94;1808027;79;21665;-73
2022/05/04 07:42:45;;;;;;;4.70;2.77;;;;;;;17.27;40.20;100382.25;1807622;78;21720;-72
2022/05/04 07:45:13;;;;;;;6.13;2.93;;;;;;;17.27;40.20;100382.25;1807777;79;21684;-73
2022/05/04 07:47:40;;;;;;;6.10;2.70;;;;;;;17.23;39.93;100394.22;1807419;79;22107;-73
2022/05/04 07:50:09;;;;;;;3.70;2.30;;;;;;;17.25;39.79;100400.67;1807500;79;21748;-72
2022/05/04 07:52:37;;;;;;;5.53;2.30;;;;;;;17.25;39.79;100400.67;1808071;79;22155;-72
2022/05/04 07:55:06;;;;;;;4.93;2.57;;;;;;;17.27;39.83;100405.20;1806410;78;21711;-73
2022/05/04 07:57:33;;;;;;;4.13;3.00;;;;;;;17.26;39.54;100411.70;1807404;79;23043;-73
2022/05/04 08:05:35;;;;;;;4.57;2.27;;;;;;;17.15;38.71;100402.26;1807636;79;21714;-72
2022/05/04 08:08:02;;;;;;;4.40;2.00;;;;;;;17.11;38.63;100410.17;1807392;79;21598;-72
2022/05/04 08:10:30;;;;;;;3.77;2.10;;;;;;;17.17;38.71;100404.08;1808110;79;21612;-73
2022/05/04 08:12:59;;;;;;;4.63;2.30;;;;;;;17.35;37.55;100412.03;1807416;78;21645;-72
2022/05/04 08:15:27;;;;;;;3.77;2.10;;;;;;;17.35;37.55;100412.03;1807281;78;21881;-72
2022/05/04 08:17:54;;;;;;;5.20;2.10;;;;;;;17.45;37.72;100401.55;1807977;79;21767;-73
2022/05/04 08:20:21;;;;;;;5.20;2.37;;;;;;;17.57;37.55;100411.25;1807782;78;21653;-72
2022/05/04 08:22:49;;;;;;;4.97;2.00;;;;;;;17.66;37.37;100411.28;1807323;79;21720;-72
2022/05/04 08:25:17;;;;;;;6.43;2.10;;;;;;;17.82;36.33;100417.14;1801640;79;21699;-73
2022/05/04 08:27:45;;;;;;;4.87;2.23;;;;;;;17.92;36.44;100429.60;1807517;78;21705;-72
2022/05/04 08:30:12;;;;;;;4.63;2.00;;;;;;;18.00;35.92;100416.15;1807809;78;21660;-72
2022/05/04 08:32:40;;;;;;;5.27;2.00;;;;;;;18.02;35.04;100426.08;1807635;79;21922;-73
2022/05/04 08:35:07;;;;;;;2.77;1.90;;;;;;;18.01;35.36;100419.64;1807695;79;21782;-73
2022/05/04 08:37:34;;;;;;;5.13;2.27;;;;;;;18.00;35.57;100426.95;1810440;78;21700;-71
2022/05/04 08:40:02;;;;;;;4.93;2.10;;;;;;;18.02;35.65;100419.32;1810508;79;21715;-72
2022/05/04 08:42:29;;;;;;;4.23;1.90;;;;;;;18.11;35.60;100417.23;1809113;79;21778;-74
2022/05/04 08:44:57;;;;;;;3.77;1.83;;;;;;;18.11;35.60;100417.23;1807595;79;20963;-72
2022/05/04 08:47:30;;;;;;;3.80;1.77;;;;;;;18.10;34.13;100421.84;1807333;79;21629;-72
2022/05/04 08:49:56;;;;;;;4.43;1.80;;;;;;;18.09;34.68;100434.30;1807279;79;22147;-73
2022/05/04 08:52:24;;;;;;;6.73;2.00;;;;;;;18.13;34.35;100438.80;1807852;79;21669;-74
2022/05/04 08:54:51;;;;;;;3.67;1.50;;;;;;;18.20;33.91;100428.33;1807322;79;21657;-73
2022/05/04 08:57:18;;;;;;;2.63;1.50;;;;;;;18.25;33.18;100420.63;1776314;79;22195;-73
2022/05/04 08:59:45;;;;;;;3.67;1.77;;;;;;;18.32;32.48;100430.99;1807846;78;21452;-73
2022/05/04 09:02:13;;;;;;;4.27;2.10;;;;;;;18.38;32.59;100425.12;1807487;78;21089;-71
2022/05/04 09:04:42;;;;;;;2.93;1.70;;;;;;;18.53;31.90;100437.45;1807382;79;21751;-72
2022/05/04 09:07:27;;;;;;;4.27;1.60;;;;;;;18.65;31.98;100428.72;1807426;79;21657;-72
2022/05/04 09:09:55;;;;;;;3.63;1.40;;;;;;;18.77;31.70;100424.89;1807619;79;21037;-72
2022/05/04 09:12:22;;;;;;;3.73;1.40;;;;;;;18.95;31.16;100434.65;1807348;78;21042;-72
2022/05/04 09:14:50;;;;;;;3.03;1.77;;;;;;;19.01;31.26;100441.25;1807947;79;21418;-73
2022/05/04 09:17:18;;;;;;;7.93;1.90;;;;;;;18.89;31.85;100449.44;1807232;79;21002;-73
2022/05/04 09:20:45;;;;;;;2.97;1.50;;;;;;;18.70;32.47;100440.77;1807641;79;21037;-73
2022/05/04 09:22:24;;;;;;;5.20;1.90;;;;;;;18.60;32.97;100438.34;1788707;79;21030;-73
2022/05/04 09:24:56;;;;;;;4.43;1.83;;;;;;;18.58;33.14;100450.81;1807067;78;21082;-72
2022/05/04 09:27:23;;;;;;;4.77;1.70;;;;;;;18.60;32.94;100447.81;1807159;79;21415;-74
2022/05/04 09:29:51;;;;;;;3.63;1.73;;;;;;;18.57;33.11;100441.12;1777078;79;21074;-73
2022/05/04 09:32:17;;;;;;;3.40;1.50;;;;;;;18.53;33.09;100449.63;1773032;79;21010;-73
2022/05/04 09:34:46;;;;;;;5.03;2.43;;;;;;;18.53;33.00;100444.21;1807623;79;21033;-74
2022/05/04 09:45:39;;;;;;;4.27;1.73;;;;;;;18.68;32.78;100437.56;1807954;79;21564;-73
2022/05/04 09:48:07;;;;;;;4.53;1.50;;;;;;;18.67;32.54;100434.63;1778830;79;20974;-73
2022/05/04 09:50:39;;;;;;;3.97;1.83;;;;;;;18.69;32.54;100433.73;1807722;79;21037;-73
2022/05/04 09:53:06;;;;;;;3.72;1.45;;;;;;;18.74;32.84;100443.90;1807340;79;21541;-73
2022/05/04 09:55:33;;;;;;;3.63;1.50;;;;;;;18.76;32.19;100443.59;1807809;79;21389;-72
2022/05/04 09:58:00;;;;;;;5.17;1.80;;;;;;;18.74;32.54;100443.11;1807198;79;20959;-73
2022/05/04 10:00:27;;;;;;;4.63;1.77;;;;;;;18.76;32.55;100438.19;1807620;78;20982;-73
2022/05/04 10:02:56;;;;;;;3.07;1.40;;;;;;;18.86;32.34;100432.48;1807493;78;21077;-73
2022/05/04 10:05:23;;;;;;;3.30;1.70;;;;;;;19.00;30.86;100426.92;1807402;79;21108;-74
2022/05/04 10:07:52;;;;;;;8.47;1.50;;;;;;;19.10;30.46;100421.20;1807125;78;22800;-72
2022/05/04 10:10:21;;;;;;;5.87;1.23;;;;;;;19.18;30.09;100428.55;1808278;78;20999;-73
2022/05/04 10:12:50;;;;;;;4.20;1.37;;;;;;;19.20;29.29;100429.01;1807317;79;21662;-72
2022/05/04 10:15:19;;;;;;;4.00;1.37;;;;;;;19.20;28.39;100424.95;1807699;79;21519;-73
2022/05/04 10:18:05;;;;;;;2.60;1.43;;;;;;;19.21;28.40;100441.98;1790849;79;21057;-73
2022/05/04 10:20:37;;;;;;;3.20;1.20;;;;;;;19.23;28.47;100437.06;1779275;79;21026;-70
2022/05/04 10:23:25;;;;;;;3.27;1.62;;;;;;;19.29;26.92;100427.66;1807325;78;21058;-73
2022/05/04 10:25:52;;;;;;;3.67;1.20;;;;;;;19.30;26.17;100434.67;1806031;78;21049;-73
2022/05/04 10:28:19;;;;;;;2.50;1.10;;;;;;;19.30;26.11;100431.16;1778977;79;20947;-73
2022/05/04 10:30:56;;;;;;;3.90;1.43;;;;;;;19.28;26.01;100430.14;1807708;79;21810;-73
2022/05/04 10:33:36;;;;;;;5.03;1.50;;;;;;;19.29;27.22;100439.06;1807532;79;20959;-73
2022/05/04 10:36:17;;;;;;;4.33;1.50;;;;;;;19.32;27.75;100427.03;1808321;79;21033;-72
2022/05/04 10:38:48;;;;;;;3.10;1.40;;;;;;;19.40;27.86;100434.91;1790506;79;20966;-72
2022/05/04 10:41:15;;;;;;;2.83;1.20;;;;;;;19.34;28.02;100422.08;1807823;78;21100;-72
2022/05/04 10:43:50;;;;;;;4.03;1.40;;;;;;;19.34;28.65;100423.43;1807537;79;21581;-72
2022/05/04 10:46:20;;;;;;;3.63;1.40;;;;;;;19.40;28.44;100421.36;1792308;78;21580;-73
2022/05/04 10:48:58;;;;;;;4.60;2.20;;;;;;;19.43;28.92;100422.88;1807926;79;20967;-74
2022/05/04 10:51:30;;;;;;;4.40;1.40;;;;;;;19.54;28.43;100430.67;1801598;79;20971;-72
2022/05/04 10:54:08;;;;;;;3.27;2.15;;;;;;;19.63;27.79;100436.35;1808479;79;21058;-73
2022/05/04 10:56:40;;;;;;;2.90;1.23;;;;;;;19.64;28.52;100441.21;1807537;78;21272;-72
2022/05/04 10:59:07;;;;;;;2.67;1.32;;;;;;;19.66;27.25;100415.95;1807451;78;21026;-72
2022/05/04 11:01:36;;;;;;;4.13;1.37;;;;;;;19.60;27.37;100413.14;1776418;79;21084;-71
2022/05/04 11:04:15;;;;;;;5.47;1.30;;;;;;;19.52;27.23;100425.59;1807620;79;21489;-72
2022/05/04 11:06:51;;;;;;;3.03;1.30;;;;;;;19.47;26.50;100433.07;1807203;78;21105;-72
2022/05/04 11:09:29;;;;;;;4.53;1.43;;;;;;;19.41;26.25;100432.42;1803566;78;21144;-73
2022/05/04 11:11:57;;;;;;;3.83;1.30;;;;;;;19.42;26.40;100432.69;1793010;79;20974;-72
2022/05/04 11:14:25;;;;;;;3.80;1.40;;;;;;;19.52;26.39;100422.88;1807422;78;21639;-73
2022/05/04 11:16:54;;;;;;;3.27;1.10;;;;;;;19.68;25.20;100421.30;1807436;78;21084;-73
2022/05/04 11:19:26;;;;;;;5.67;1.30;;;;;;;19.68;25.65;100428.08;1807826;79;21006;-72
2022/05/04 11:21:56;;;;;;;3.60;1.30;;;;;;;19.66;25.58;100427.59;1807507;79;21242;-72
2022/05/04 11:24:27;;;;;;;2.10;1.20;;;;;;;19.66;25.61;100448.47;1807664;78;21555;-73
2022/05/04 11:26:54;;;;;;;3.83;1.20;;;;;;;19.65;25.36;100417.08;1807722;78;21599;-73
2022/05/04 11:29:24;;;;;;;3.60;1.50;;;;;;;19.69;25.54;100407.19;1806619;79;21179;-73
2022/05/04 11:32:05;;;;;;;4.03;1.30;;;;;;;19.77;25.91;100413.14;1809074;78;20959;-73
2022/05/04 11:34:40;;;;;;;5.50;1.47;;;;;;;19.92;24.80;100424.04;1807805;78;21243;-72
2022/05/04 11:37:07;;;;;;;;;;;;;;;20.00;24.76;100415.07;1810591;78;21050;-71
2022/05/04 11:39:37;;;;;;;3.50;1.40;;;;;;;20.06;24.82;100404.86;1810953;78;20147;-72
2022/05/04 11:42:09;;;;;;;2.67;1.20;;;;;;;20.09;24.82;100417.77;1810907;79;21006;-73
2022/05/04 11:44:46;;;;;;;4.23;1.27;;;;;;;20.07;24.85;100411.33;1808631;78;20983;-72
2022/05/04 11:47:10;;;;;;;2.97;1.30;;;;;;;20.01;24.62;100419.95;1807479;79;21506;-72
2022/05/04 11:49:37;;;;;;;3.87;1.30;;;;;;;19.91;25.03;100412.41;1808112;78;21094;-72
2022/05/04 11:52:05;;;;;;;3.00;1.23;;;;;;;19.89;25.06;100418.70;1757378;79;21442;-73
2022/05/04 11:54:33;;;;;;;3.97;1.40;;;;;;;19.87;25.41;100401.98;1813243;78;21068;-72
2022/05/04 11:57:00;;;;;;;5.67;2.17;;;;;;;19.89;25.63;100427.39;1807209;78;21058;-71
2022/05/04 11:59:31;;;;;;;3.17;1.73;;;;;;;19.78;25.33;100419.38;1807802;79;21110;-73
2022/05/04 12:01:59;;;;;;;3.57;1.47;;;;;;;19.76;25.62;100416.18;1807691;79;21140;-73